createdAt,value
2022-09-12T00:00:20.154Z,99.99
2022-09-12T00:00:50.808Z,99.99
2022-09-12T00:01:21.538Z,99.99
2022-09-12T00:01:52.194Z,99.99
2022-09-12T00:02:22.841Z,99.99
2022-09-12T00:02:53.383Z,99.99
2022-09-12T00:03:23.970Z,99.99
2022-09-12T00:03:54.526Z,99.99
2022-09-12T00:04:25.112Z,99.99
2022-09-12T00:04:55.693Z,99.99
2022-09-12T00:05:26.255Z,99.99
2022-09-12T00:05:56.836Z,99.99
2022-09-12T00:06:27.390Z,99.99
2022-09-12T00:06:57.968Z,99.99
2022-09-12T00:07:28.538Z,99.93
2022-09-12T00:07:59.101Z,99.99
2022-09-12T00:08:29.636Z,99.99
2022-09-12T00:09:00.215Z,99.99
2022-09-12T00:09:30.745Z,99.99
2022-09-12T00:10:01.306Z,99.99
2022-09-12T00:10:31.870Z,99.99
2022-09-12T00:11:02.418Z,99.99
2022-09-12T00:11:32.963Z,99.99
2022-09-12T00:12:03.543Z,99.99
2022-09-12T00:12:34.086Z,99.99
2022-09-12T00:13:04.692Z,99.99
2022-09-12T00:13:38.379Z,99.99
2022-09-12T00:14:06.049Z,99.99
2022-09-12T00:14:36.615Z,99.99
2022-09-12T00:15:07.181Z,99.99
2022-09-12T00:15:37.766Z,99.99
2022-09-12T00:16:08.396Z,99.99
2022-09-12T00:16:39.067Z,99.99
2022-09-12T00:17:09.634Z,99.99
2022-09-12T00:17:40.217Z,99.99
2022-09-12T00:18:10.798Z,99.99
2022-09-12T00:18:41.430Z,99.99
2022-09-12T00:19:12.002Z,99.99
2022-09-12T00:19:42.545Z,99.99
2022-09-12T00:20:13.149Z,99.99
2022-09-12T00:20:43.721Z,99.99
2022-09-12T00:21:14.296Z,99.99
2022-09-12T00:21:44.849Z,99.99
2022-09-12T00:22:15.418Z,99.99
2022-09-12T00:22:46.004Z,99.99
2022-09-12T00:23:16.608Z,99.99
2022-09-12T00:23:47.153Z,99.99
2022-09-12T00:24:17.755Z,99.99
2022-09-12T00:24:48.326Z,99.99
2022-09-12T00:25:18.891Z,99.99
2022-09-12T00:25:49.458Z,99.99
2022-09-12T00:26:20.032Z,99.99
2022-09-12T00:26:50.621Z,99.99
2022-09-12T00:27:21.186Z,99.99
2022-09-12T00:27:51.756Z,99.99
2022-09-12T00:28:22.340Z,99.99
2022-09-12T00:28:52.913Z,99.99
2022-09-12T00:29:23.470Z,99.99
2022-09-12T00:29:54.042Z,99.99
2022-09-12T00:30:24.610Z,99.99
2022-09-12T00:30:55.171Z,99.99
2022-09-12T00:31:25.783Z,99.99
2022-09-12T00:31:56.461Z,99.99
2022-09-12T00:32:27.027Z,99.99
2022-09-12T00:32:57.633Z,99.99
2022-09-12T00:33:28.210Z,99.99
2022-09-12T00:33:58.795Z,99.99
2022-09-12T00:34:29.374Z,99.99
2022-09-12T00:34:59.953Z,99.99
2022-09-12T00:35:30.548Z,99.99
2022-09-12T00:36:01.115Z,99.99
2022-09-12T00:36:31.664Z,99.99
2022-09-12T00:37:02.233Z,99.99
2022-09-12T00:37:32.804Z,99.99
2022-09-12T00:38:03.358Z,99.99
2022-09-12T00:38:33.970Z,99.99
2022-09-12T00:39:04.520Z,99.99
2022-09-12T00:39:35.085Z,99.99
2022-09-12T00:40:05.708Z,99.99
2022-09-12T00:40:36.289Z,99.99
2022-09-12T00:41:06.861Z,99.99
2022-09-12T00:41:37.454Z,99.99
2022-09-12T00:42:07.985Z,99.99
2022-09-12T00:42:38.564Z,99.99
2022-09-12T00:43:09.152Z,99.99
2022-09-12T00:43:39.721Z,99.99
2022-09-12T00:44:10.301Z,99.99
2022-09-12T00:44:40.862Z,99.99
2022-09-12T00:45:11.422Z,99.99
2022-09-12T00:45:42.042Z,99.99
2022-09-12T00:46:12.598Z,99.99
2022-09-12T00:46:43.173Z,99.99
2022-09-12T00:47:13.726Z,99.99
2022-09-12T00:47:44.319Z,99.99
2022-09-12T00:48:14.895Z,99.99
2022-09-12T00:48:45.486Z,99.99
2022-09-12T00:49:16.014Z,99.99
2022-09-12T00:49:46.560Z,99.99
2022-09-12T00:50:17.133Z,99.99
2022-09-12T00:50:47.723Z,99.99
2022-09-12T00:51:18.293Z,99.99
2022-09-12T00:51:48.880Z,99.99
2022-09-12T00:52:19.469Z,99.99
2022-09-12T00:52:50.058Z,99.99
2022-09-12T00:53:20.630Z,99.99
2022-09-12T00:53:51.232Z,99.99
2022-09-12T00:54:21.764Z,99.99
2022-09-12T00:54:52.328Z,99.99
2022-09-12T00:55:22.890Z,99.99
2022-09-12T00:55:53.485Z,99.99
2022-09-12T00:56:24.058Z,99.99
2022-09-12T00:56:54.660Z,99.99
2022-09-12T00:57:25.244Z,99.99
2022-09-12T00:57:55.796Z,99.99
2022-09-12T00:58:26.369Z,99.99
2022-09-12T00:58:56.953Z,99.99
2022-09-12T00:59:27.512Z,99.99
2022-09-12T00:59:58.075Z,99.99
2022-09-12T01:00:28.661Z,99.99
2022-09-12T01:00:59.323Z,99.99
2022-09-12T01:01:32.570Z,99.99
2022-09-12T01:02:00.988Z,99.99
2022-09-12T01:02:31.643Z,99.99
2022-09-12T01:03:02.189Z,99.99
2022-09-12T01:03:32.971Z,99.99
2022-09-12T01:04:03.564Z,99.99
2022-09-12T01:04:34.147Z,99.99
2022-09-12T01:05:04.699Z,99.99
2022-09-12T01:05:35.331Z,99.99
2022-09-12T01:06:05.889Z,99.99
2022-09-12T01:06:36.474Z,99.99
2022-09-12T01:07:07.062Z,99.99
2022-09-12T01:07:40.109Z,99.99
2022-09-12T01:08:08.324Z,99.99
2022-09-12T01:08:38.869Z,99.99
2022-09-12T01:09:09.444Z,99.99
2022-09-12T01:09:40.015Z,99.99
2022-09-12T01:10:10.582Z,99.99
2022-09-12T01:10:41.155Z,99.99
2022-09-12T01:11:11.734Z,99.99
2022-09-12T01:11:42.269Z,99.99
2022-09-12T01:12:12.842Z,99.99
2022-09-12T01:12:43.417Z,99.99
2022-09-12T01:13:13.951Z,99.99
2022-09-12T01:13:44.498Z,99.99
2022-09-12T01:14:15.067Z,99.99
2022-09-12T01:14:45.643Z,99.99
2022-09-12T01:15:16.177Z,99.99
2022-09-12T01:15:46.761Z,99.99
2022-09-12T01:16:17.356Z,99.99
2022-09-12T01:16:47.914Z,99.99
2022-09-12T01:17:18.465Z,99.99
2022-09-12T01:17:49.051Z,99.99
2022-09-12T01:18:19.589Z,99.99
2022-09-12T01:18:50.596Z,99.99
2022-09-12T01:19:21.164Z,99.99
2022-09-12T01:19:51.745Z,99.99
2022-09-12T01:20:22.329Z,99.99
2022-09-12T01:20:52.888Z,99.99
2022-09-12T01:21:23.458Z,99.99
2022-09-12T01:21:54.044Z,99.99
2022-09-12T01:22:24.615Z,99.99
2022-09-12T01:22:55.214Z,99.99
2022-09-12T01:23:25.818Z,99.99
2022-09-12T01:23:56.416Z,99.99
2022-09-12T01:24:27.028Z,99.99
2022-09-12T01:24:57.599Z,99.99
2022-09-12T01:25:28.174Z,99.99
2022-09-12T01:25:58.718Z,99.99
2022-09-12T01:26:29.283Z,99.99
2022-09-12T01:26:59.860Z,99.99
2022-09-12T01:27:30.435Z,99.99
2022-09-12T01:28:00.973Z,99.99
2022-09-12T01:28:31.575Z,99.99
2022-09-12T01:29:02.105Z,99.99
2022-09-12T01:29:32.670Z,99.99
2022-09-12T01:30:03.251Z,99.99
2022-09-12T01:30:33.792Z,99.99
2022-09-12T01:31:04.364Z,99.99
2022-09-12T01:31:34.943Z,99.99
2022-09-12T01:32:05.603Z,99.99
2022-09-12T01:32:36.137Z,99.99
2022-09-12T01:33:06.688Z,99.99
2022-09-12T01:33:37.270Z,99.99
2022-09-12T01:34:07.828Z,99.99
2022-09-12T01:34:38.422Z,99.99
2022-09-12T01:35:09.003Z,99.99
2022-09-12T01:35:39.587Z,99.99
2022-09-12T01:36:10.178Z,99.99
2022-09-12T01:36:40.755Z,99.99
2022-09-12T01:37:11.310Z,99.99
2022-09-12T01:37:41.910Z,99.99
2022-09-12T01:38:12.457Z,99.99
2022-09-12T01:38:43.009Z,99.99
2022-09-12T01:39:13.566Z,99.99
2022-09-12T01:39:44.239Z,99.99
2022-09-12T01:40:14.832Z,99.99
2022-09-12T01:40:45.384Z,99.99
2022-09-12T01:41:15.969Z,99.99
2022-09-12T01:41:46.561Z,99.99
2022-09-12T01:42:17.126Z,99.99
2022-09-12T01:42:47.731Z,99.99
2022-09-12T01:43:18.310Z,99.99
2022-09-12T01:43:48.916Z,99.99
2022-09-12T01:44:19.491Z,99.99
2022-09-12T01:44:50.073Z,99.99
2022-09-12T01:45:20.637Z,99.99
2022-09-12T01:45:51.237Z,99.99
2022-09-12T01:46:21.833Z,99.99
2022-09-12T01:46:52.410Z,99.99
2022-09-12T01:47:22.960Z,99.99
2022-09-12T01:47:53.554Z,99.99
2022-09-12T01:48:24.128Z,99.99
2022-09-12T01:48:54.705Z,99.99
2022-09-12T01:49:25.298Z,99.99
2022-09-12T01:49:55.892Z,99.99
2022-09-12T01:50:26.477Z,99.99
2022-09-12T01:50:57.042Z,99.99
2022-09-12T01:51:27.624Z,99.99
2022-09-12T01:51:58.177Z,99.99
2022-09-12T01:52:28.714Z,99.99
2022-09-12T01:52:59.256Z,99.99
2022-09-12T01:53:29.834Z,99.99
2022-09-12T01:54:00.395Z,99.99
2022-09-12T01:54:30.993Z,99.99
2022-09-12T01:55:01.594Z,99.99
2022-09-12T01:55:32.158Z,99.99
2022-09-12T01:56:02.723Z,99.99
2022-09-12T01:56:33.345Z,99.99
2022-09-12T01:57:03.895Z,99.99
2022-09-12T01:57:34.461Z,99.99
2022-09-12T01:58:05.028Z,99.99
2022-09-12T01:58:35.613Z,99.99
2022-09-12T01:59:06.209Z,99.99
2022-09-12T01:59:36.746Z,99.99
2022-09-12T02:00:07.343Z,99.99
2022-09-12T02:00:38.007Z,99.99
2022-09-12T02:01:08.655Z,99.99
2022-09-12T02:01:39.220Z,99.99
2022-09-12T02:02:09.870Z,99.99
2022-09-12T02:02:40.472Z,99.99
2022-09-12T02:03:11.053Z,99.99
2022-09-12T02:03:41.639Z,99.99
2022-09-12T02:04:12.179Z,99.99
2022-09-12T02:04:42.713Z,99.99
2022-09-12T02:05:13.306Z,99.99
2022-09-12T02:05:43.838Z,99.99
2022-09-12T02:06:14.429Z,99.99
2022-09-12T02:06:45.018Z,99.99
2022-09-12T02:07:15.557Z,99.99
2022-09-12T02:07:46.112Z,99.99
2022-09-12T02:08:16.665Z,99.99
2022-09-12T02:08:47.455Z,99.99
2022-09-12T02:09:18.081Z,99.99
2022-09-12T02:09:48.638Z,99.99
2022-09-12T02:10:19.240Z,99.99
2022-09-12T02:10:49.808Z,99.99
2022-09-12T02:11:20.368Z,99.99
2022-09-12T02:11:50.948Z,99.99
2022-09-12T02:12:21.492Z,99.99
2022-09-12T02:12:52.061Z,99.99
2022-09-12T02:13:22.624Z,99.99
2022-09-12T02:13:53.193Z,99.99
2022-09-12T02:14:23.772Z,99.99
2022-09-12T02:14:54.296Z,99.99
2022-09-12T02:15:24.886Z,99.99
2022-09-12T02:15:55.468Z,99.99
2022-09-12T02:16:26.126Z,99.99
2022-09-12T02:16:56.685Z,99.99
2022-09-12T02:17:27.278Z,99.99
2022-09-12T02:17:57.894Z,99.99
2022-09-12T02:18:28.467Z,99.99
2022-09-12T02:18:59.067Z,99.99
2022-09-12T02:19:29.631Z,99.99
2022-09-12T02:20:00.199Z,99.99
2022-09-12T02:20:47.450Z,99.99
2022-09-12T02:21:01.541Z,99.99
2022-09-12T02:21:32.105Z,99.99
2022-09-12T02:22:02.692Z,99.99
2022-09-12T02:22:33.252Z,99.99
2022-09-12T02:23:03.831Z,99.99
2022-09-12T02:23:34.378Z,99.99
2022-09-12T02:24:04.949Z,99.99
2022-09-12T02:24:35.496Z,99.99
2022-09-12T02:25:06.065Z,99.99
2022-09-12T02:25:36.674Z,99.99
2022-09-12T02:26:07.213Z,99.99
2022-09-12T02:26:37.812Z,99.99
2022-09-12T02:27:08.398Z,99.99
2022-09-12T02:27:38.954Z,99.99
2022-09-12T02:28:09.518Z,99.99
2022-09-12T02:28:40.111Z,99.99
2022-09-12T02:29:10.694Z,99.99
2022-09-12T02:29:41.285Z,99.99
2022-09-12T02:30:11.812Z,99.99
2022-09-12T02:30:42.417Z,99.99
2022-09-12T02:31:12.974Z,99.99
2022-09-12T02:31:43.503Z,99.99
2022-09-12T02:32:14.032Z,99.99
2022-09-12T02:32:44.590Z,99.99
2022-09-12T02:33:15.161Z,99.99
2022-09-12T02:33:45.711Z,99.99
2022-09-12T02:34:16.335Z,99.99
2022-09-12T02:34:46.937Z,99.99
2022-09-12T02:35:17.501Z,99.99
2022-09-12T02:35:48.027Z,99.99
2022-09-12T02:36:18.614Z,99.99
2022-09-12T02:36:49.175Z,99.99
2022-09-12T02:37:19.753Z,99.99
2022-09-12T02:37:50.328Z,99.99
2022-09-12T02:38:20.851Z,99.99
2022-09-12T02:38:51.444Z,99.99
2022-09-12T02:39:21.983Z,99.99
2022-09-12T02:39:52.685Z,99.99
2022-09-12T02:40:23.279Z,99.99
2022-09-12T02:40:53.858Z,99.99
2022-09-12T02:41:24.413Z,99.99
2022-09-12T02:41:54.957Z,99.99
2022-09-12T02:42:25.523Z,99.99
2022-09-12T02:42:56.077Z,99.99
2022-09-12T02:43:26.627Z,99.99
2022-09-12T02:43:57.180Z,99.99
2022-09-12T02:44:27.758Z,99.99
2022-09-12T02:44:58.356Z,99.99
2022-09-12T02:45:28.979Z,99.99
2022-09-12T02:45:59.591Z,99.99
2022-09-12T02:46:30.142Z,99.99
2022-09-12T02:47:00.719Z,99.99
2022-09-12T02:47:31.302Z,99.99
2022-09-12T02:48:01.928Z,99.99
2022-09-12T02:48:32.573Z,99.99
2022-09-12T02:49:03.158Z,99.99
2022-09-12T02:49:33.694Z,99.99
2022-09-12T02:50:04.282Z,99.99
2022-09-12T02:50:34.867Z,99.99
2022-09-12T02:51:05.411Z,99.99
2022-09-12T02:51:35.977Z,99.99
2022-09-12T02:52:06.556Z,99.99
2022-09-12T02:52:37.132Z,99.99
2022-09-12T02:53:07.723Z,99.99
2022-09-12T02:53:38.282Z,99.99
2022-09-12T02:54:08.867Z,99.99
2022-09-12T02:54:39.401Z,99.99
2022-09-12T02:55:09.925Z,99.99
2022-09-12T02:55:40.518Z,99.99
2022-09-12T02:56:11.122Z,99.99
2022-09-12T02:56:41.663Z,99.99
2022-09-12T02:57:12.242Z,99.99
2022-09-12T02:57:42.807Z,99.99
2022-09-12T02:58:13.389Z,99.99
2022-09-12T02:58:44.076Z,99.99
2022-09-12T02:59:14.652Z,99.99
2022-09-12T02:59:45.189Z,99.99
2022-09-12T03:00:15.749Z,99.99
2022-09-12T03:00:46.348Z,99.99
2022-09-12T03:01:16.906Z,99.99
2022-09-12T03:01:47.506Z,99.99
2022-09-12T03:02:18.118Z,99.99
2022-09-12T03:02:48.667Z,99.99
2022-09-12T03:03:19.246Z,99.99
2022-09-12T03:03:49.799Z,99.99
2022-09-12T03:04:20.388Z,99.99
2022-09-12T03:04:50.922Z,99.99
2022-09-12T03:05:21.512Z,99.99
2022-09-12T03:05:52.225Z,99.99
2022-09-12T03:06:22.795Z,99.99
2022-09-12T03:06:53.455Z,99.99
2022-09-12T03:07:24.013Z,99.99
2022-09-12T03:07:54.592Z,99.99
2022-09-12T03:08:25.168Z,99.99
2022-09-12T03:08:55.721Z,99.99
2022-09-12T03:09:26.294Z,99.99
2022-09-12T03:09:56.857Z,99.99
2022-09-12T03:10:27.387Z,99.99
2022-09-12T03:10:57.962Z,99.99
2022-09-12T03:11:28.555Z,99.99
2022-09-12T03:11:59.105Z,99.99
2022-09-12T03:12:29.667Z,99.99
2022-09-12T03:13:00.199Z,99.99
2022-09-12T03:13:30.801Z,99.99
2022-09-12T03:14:01.327Z,99.99
2022-09-12T03:14:31.906Z,99.99
2022-09-12T03:15:02.474Z,99.99
2022-09-12T03:15:33.034Z,99.99
2022-09-12T03:16:03.602Z,99.99
2022-09-12T03:16:34.219Z,99.99
2022-09-12T03:17:04.786Z,99.99
2022-09-12T03:17:35.340Z,99.99
2022-09-12T03:18:05.885Z,99.99
2022-09-12T03:18:36.443Z,99.99
2022-09-12T03:19:06.993Z,99.99
2022-09-12T03:19:37.562Z,99.99
2022-09-12T03:20:08.139Z,99.99
2022-09-12T03:20:38.705Z,99.99
2022-09-12T03:21:09.269Z,99.99
2022-09-12T03:21:39.839Z,99.99
2022-09-12T03:22:10.391Z,99.99
2022-09-12T03:22:40.953Z,99.99
2022-09-12T03:23:11.565Z,99.99
2022-09-12T03:23:42.134Z,99.99
2022-09-12T03:24:12.698Z,99.99
2022-09-12T03:24:43.249Z,99.99
2022-09-12T03:25:13.815Z,99.99
2022-09-12T03:25:44.373Z,99.99
2022-09-12T03:26:14.935Z,99.99
2022-09-12T03:26:45.540Z,99.99
2022-09-12T03:27:16.091Z,99.99
2022-09-12T03:27:46.643Z,99.99
2022-09-12T03:28:17.233Z,99.99
2022-09-12T03:28:47.782Z,99.99
2022-09-12T03:29:18.343Z,99.99
2022-09-12T03:29:48.919Z,99.99
2022-09-12T03:30:19.516Z,99.99
2022-09-12T03:30:50.105Z,99.99
2022-09-12T03:31:20.666Z,99.99
2022-09-12T03:31:51.241Z,99.99
2022-09-12T03:32:21.816Z,99.99
2022-09-12T03:32:52.389Z,99.99
2022-09-12T03:33:22.960Z,99.99
2022-09-12T03:33:53.563Z,99.99
2022-09-12T03:34:24.112Z,99.99
2022-09-12T03:34:54.683Z,99.99
2022-09-12T03:35:25.254Z,99.99
2022-09-12T03:35:55.820Z,99.99
2022-09-12T03:36:26.389Z,99.99
2022-09-12T03:36:57.017Z,99.99
2022-09-12T03:37:27.567Z,99.99
2022-09-12T03:37:58.142Z,99.99
2022-09-12T03:38:28.675Z,99.99
2022-09-12T03:38:59.272Z,99.99
2022-09-12T03:39:29.864Z,99.99
2022-09-12T03:40:00.479Z,99.99
2022-09-12T03:40:31.040Z,99.99
2022-09-12T03:41:01.598Z,99.99
2022-09-12T03:41:32.177Z,99.99
2022-09-12T03:42:02.782Z,99.99
2022-09-12T03:42:33.328Z,99.99
2022-09-12T03:43:03.856Z,99.99
2022-09-12T03:43:34.431Z,99.99
2022-09-12T03:44:04.994Z,99.99
2022-09-12T03:44:35.572Z,99.99
2022-09-12T03:45:06.136Z,99.99
2022-09-12T03:45:36.742Z,99.99
2022-09-12T03:46:07.360Z,99.99
2022-09-12T03:46:37.937Z,99.99
2022-09-12T03:47:11.219Z,99.99
2022-09-12T03:47:39.412Z,99.99
2022-09-12T03:48:09.987Z,99.99
2022-09-12T03:48:40.540Z,99.99
2022-09-12T03:49:11.131Z,99.99
2022-09-12T03:49:41.703Z,99.99
2022-09-12T03:50:12.287Z,99.99
2022-09-12T03:50:42.850Z,99.99
2022-09-12T03:51:13.438Z,99.99
2022-09-12T03:51:43.997Z,99.99
2022-09-12T03:52:14.573Z,99.90
2022-09-12T03:52:45.138Z,99.99
2022-09-12T03:53:17.351Z,99.99
2022-09-12T03:53:46.518Z,99.99
2022-09-12T03:54:17.075Z,99.99
2022-09-12T03:54:47.644Z,99.99
2022-09-12T03:55:18.230Z,99.99
2022-09-12T03:55:48.790Z,99.99
2022-09-12T03:56:19.337Z,99.99
2022-09-12T03:56:49.912Z,99.99
2022-09-12T03:57:20.509Z,99.99
2022-09-12T03:57:51.081Z,99.99
2022-09-12T03:58:21.635Z,99.99
2022-09-12T03:58:52.211Z,99.99
2022-09-12T03:59:22.772Z,99.99
2022-09-12T03:59:53.423Z,99.90
2022-09-12T04:00:23.979Z,99.99
2022-09-12T04:00:54.805Z,99.90
2022-09-12T04:01:25.407Z,99.79
2022-09-12T04:01:55.972Z,99.90
2022-09-12T04:02:26.670Z,99.79
2022-09-12T04:02:57.272Z,99.59
2022-09-12T04:03:27.837Z,99.79
2022-09-12T04:03:58.409Z,99.69
2022-09-12T04:04:28.975Z,99.59
2022-09-12T04:04:59.556Z,99.63
2022-09-12T04:05:30.134Z,99.54
2022-09-12T04:06:00.708Z,99.43
2022-09-12T04:06:31.310Z,99.33
2022-09-12T04:07:01.873Z,99.74
2022-09-12T04:07:32.447Z,99.95
2022-09-12T04:08:03.012Z,99.99
2022-09-12T04:08:33.561Z,99.99
2022-09-12T04:09:04.136Z,99.99
2022-09-12T04:09:34.671Z,99.99
2022-09-12T04:10:05.214Z,99.99
2022-09-12T04:10:35.789Z,99.99
2022-09-12T04:11:06.368Z,99.99
2022-09-12T04:11:36.956Z,99.95
2022-09-12T04:12:07.531Z,99.95
2022-09-12T04:12:38.173Z,99.95
2022-09-12T04:13:08.689Z,99.99
2022-09-12T04:13:39.256Z,99.84
2022-09-12T04:14:09.807Z,99.74
2022-09-12T04:14:40.390Z,99.74
2022-09-12T04:15:10.941Z,99.99
2022-09-12T04:15:41.516Z,99.99
2022-09-12T04:16:12.174Z,99.99
2022-09-12T04:16:42.813Z,99.99
2022-09-12T04:17:13.421Z,99.99
2022-09-12T04:17:43.998Z,99.99
2022-09-12T04:18:14.561Z,99.99
2022-09-12T04:18:45.299Z,99.99
2022-09-12T04:19:16.133Z,99.99
2022-09-12T04:19:46.692Z,99.99
2022-09-12T04:20:17.210Z,99.99
2022-09-12T04:20:47.787Z,99.99
2022-09-12T04:21:18.367Z,99.99
2022-09-12T04:21:48.964Z,99.99
2022-09-12T04:22:19.551Z,99.99
2022-09-12T04:22:50.118Z,99.99
2022-09-12T04:23:20.621Z,99.99
2022-09-12T04:23:51.139Z,99.99
2022-09-12T04:24:21.678Z,99.95
2022-09-12T04:24:52.696Z,99.84
2022-09-12T04:25:23.749Z,99.63
2022-09-12T04:25:54.310Z,99.43
2022-09-12T04:26:24.885Z,99.33
2022-09-12T04:26:55.446Z,99.33
2022-09-12T04:27:25.962Z,99.48
2022-09-12T04:27:56.508Z,99.38
2022-09-12T04:28:27.009Z,98.96
2022-09-12T04:28:58.053Z,98.96
2022-09-12T04:29:28.638Z,99.17
2022-09-12T04:29:59.173Z,99.27
2022-09-12T04:30:29.784Z,99.48
2022-09-12T04:31:00.315Z,99.68
2022-09-12T04:31:30.851Z,99.58
2022-09-12T04:32:01.363Z,99.58
2022-09-12T04:32:32.393Z,99.58
2022-09-12T04:33:07.886Z,99.48
2022-09-12T04:33:33.962Z,99.27
2022-09-12T04:34:04.502Z,99.27
2022-09-12T04:34:35.035Z,99.48
2022-09-12T04:35:05.551Z,99.38
2022-09-12T04:35:36.592Z,99.27
2022-09-12T04:36:07.612Z,99.38
2022-09-12T04:36:38.135Z,99.48
2022-09-12T04:37:08.664Z,99.48
2022-09-12T04:37:39.665Z,99.38
2022-09-12T04:38:10.209Z,99.07
2022-09-12T04:38:40.717Z,99.07
2022-09-12T04:39:11.731Z,99.38
2022-09-12T04:39:42.311Z,99.58
2022-09-12T04:40:42.540Z,99.58
2022-09-12T04:41:14.114Z,99.58
2022-09-12T04:41:44.628Z,99.63
2022-09-12T04:42:15.670Z,99.93
2022-09-12T04:42:46.192Z,99.93
2022-09-12T04:43:17.268Z,99.52
2022-09-12T04:43:47.776Z,99.63
2022-09-12T04:44:18.290Z,99.93
2022-09-12T04:44:49.336Z,99.83
2022-09-12T04:45:19.854Z,99.63
2022-09-12T04:45:50.919Z,99.93
2022-09-12T04:46:21.402Z,99.99
2022-09-12T04:46:52.435Z,99.99
2022-09-12T04:47:22.959Z,99.99
2022-09-12T04:47:53.966Z,99.99
2022-09-12T04:48:25.009Z,99.99
2022-09-12T04:48:57.023Z,99.99
2022-09-12T04:49:26.176Z,99.99
2022-09-12T04:49:57.196Z,99.99
2022-09-12T04:50:27.758Z,99.99
2022-09-12T04:50:58.249Z,99.99
2022-09-12T04:51:28.763Z,99.99
2022-09-12T04:51:59.288Z,99.99
2022-09-12T04:52:30.320Z,99.99
2022-09-12T04:53:00.839Z,99.99
2022-09-12T04:53:31.874Z,99.99
2022-09-12T04:54:02.424Z,99.99
2022-09-12T04:54:32.944Z,99.99
2022-09-12T04:55:03.971Z,99.99
2022-09-12T04:55:34.498Z,99.99
2022-09-12T04:56:05.545Z,99.99
2022-09-12T04:56:36.557Z,99.99
2022-09-12T04:57:07.090Z,99.99
2022-09-12T04:57:38.127Z,99.99
2022-09-12T04:58:08.673Z,99.99
2022-09-12T04:58:39.214Z,99.99
2022-09-12T04:59:10.254Z,99.99
2022-09-12T04:59:40.808Z,99.99
2022-09-12T05:00:11.289Z,99.99
2022-09-12T05:00:42.289Z,99.99
2022-09-12T05:01:12.921Z,99.99
2022-09-12T05:01:43.464Z,99.99
2022-09-12T05:02:14.610Z,99.99
2022-09-12T05:02:45.153Z,99.99
2022-09-12T05:03:15.681Z,99.99
2022-09-12T05:03:46.243Z,99.99
2022-09-12T05:04:16.750Z,99.99
2022-09-12T05:04:47.335Z,99.99
2022-09-12T05:05:17.873Z,99.99
2022-09-12T05:05:51.299Z,99.99
2022-09-12T05:06:19.567Z,99.99
2022-09-12T05:06:50.104Z,99.99
2022-09-12T05:07:21.135Z,99.99
2022-09-12T05:07:51.655Z,99.99
2022-09-12T05:08:22.215Z,99.99
2022-09-12T05:08:52.729Z,99.99
2022-09-12T05:09:23.251Z,99.99
2022-09-12T05:09:54.260Z,99.99
2022-09-12T05:10:24.787Z,99.99
2022-09-12T05:10:55.315Z,99.99
2022-09-12T05:11:36.724Z,99.99
2022-09-12T05:12:05.265Z,99.99
2022-09-12T05:12:27.285Z,99.99
2022-09-12T05:12:58.330Z,99.99
2022-09-12T05:13:29.354Z,99.99
2022-09-12T05:14:00.432Z,99.99
2022-09-12T05:14:30.976Z,99.99
2022-09-12T05:15:01.499Z,99.99
2022-09-12T05:15:32.136Z,99.99
2022-09-12T05:16:02.679Z,99.99
2022-09-12T05:16:33.238Z,99.99
2022-09-12T05:17:04.041Z,99.99
2022-09-12T05:17:34.575Z,99.99
2022-09-12T05:18:05.596Z,99.99
2022-09-12T05:18:36.752Z,99.99
2022-09-12T05:19:07.270Z,99.99
2022-09-12T05:19:37.820Z,99.99
2022-09-12T05:20:08.836Z,99.99
2022-09-12T05:20:39.864Z,99.99
2022-09-12T05:21:10.902Z,99.99
2022-09-12T05:21:41.935Z,99.99
2022-09-12T05:22:13.024Z,99.99
2022-09-12T05:22:43.513Z,99.99
2022-09-12T05:23:14.522Z,99.99
2022-09-12T05:23:45.546Z,99.99
2022-09-12T05:24:16.074Z,99.99
2022-09-12T05:24:50.426Z,99.99
2022-09-12T05:25:18.157Z,99.99
2022-09-12T05:25:48.670Z,99.99
2022-09-12T05:26:19.718Z,99.99
2022-09-12T05:26:50.238Z,99.99
2022-09-12T05:27:21.274Z,99.99
2022-09-12T05:27:51.794Z,99.99
2022-09-12T05:28:22.808Z,99.99
2022-09-12T05:28:53.338Z,99.99
2022-09-12T05:29:23.910Z,99.99
2022-09-12T05:29:54.406Z,99.99
2022-09-12T05:30:24.978Z,99.99
2022-09-12T05:30:55.546Z,99.99
2022-09-12T05:31:26.128Z,99.99
2022-09-12T05:31:56.659Z,99.99
2022-09-12T05:32:27.687Z,99.99
2022-09-12T05:32:58.204Z,99.99
2022-09-12T05:33:28.731Z,99.99
2022-09-12T05:33:59.770Z,99.99
2022-09-12T05:34:30.305Z,99.99
2022-09-12T05:35:01.362Z,99.99
2022-09-12T05:35:31.880Z,99.99
2022-09-12T05:36:02.921Z,99.99
2022-09-12T05:36:33.457Z,99.99
2022-09-12T05:37:03.987Z,99.99
2022-09-12T05:37:34.530Z,99.99
2022-09-12T05:38:05.025Z,99.99
2022-09-12T05:38:36.040Z,99.99
2022-09-12T05:39:06.619Z,99.99
2022-09-12T05:39:37.271Z,99.99
2022-09-12T05:40:07.848Z,99.99
2022-09-12T05:40:38.361Z,99.99
2022-09-12T05:41:12.337Z,99.99
2022-09-12T05:41:39.629Z,99.99
2022-09-12T05:42:10.185Z,99.99
2022-09-12T05:42:40.675Z,99.99
2022-09-12T05:43:11.213Z,99.99
2022-09-12T05:43:42.249Z,99.99
2022-09-12T05:44:12.777Z,99.99
2022-09-12T05:44:43.829Z,99.99
2022-09-12T05:45:14.832Z,99.99
2022-09-12T05:45:45.398Z,99.99
2022-09-12T05:46:15.928Z,99.99
2022-09-12T05:46:46.969Z,99.99
2022-09-12T05:47:17.984Z,99.99
2022-09-12T05:47:48.999Z,99.99
2022-09-12T05:48:20.035Z,99.99
2022-09-12T05:48:55.728Z,99.99
2022-09-12T05:49:21.270Z,99.99
2022-09-12T05:49:51.807Z,99.99
2022-09-12T05:50:22.842Z,99.99
2022-09-12T05:50:53.866Z,99.99
2022-09-12T05:51:24.861Z,99.99
2022-09-12T05:51:55.398Z,99.99
2022-09-12T05:52:25.905Z,99.99
2022-09-12T05:52:56.422Z,99.99
2022-09-12T05:53:27.418Z,99.99
2022-09-12T05:53:58.457Z,99.99
2022-09-12T05:54:31.666Z,99.99
2022-09-12T05:55:00.259Z,99.99
2022-09-12T05:55:31.294Z,99.99
2022-09-12T05:56:02.329Z,99.99
2022-09-12T05:56:32.876Z,99.99
2022-09-12T05:57:03.878Z,99.99
2022-09-12T05:57:34.926Z,99.99
2022-09-12T05:58:05.940Z,99.99
2022-09-12T05:58:36.966Z,99.99
2022-09-12T05:59:08.003Z,99.99
2022-09-12T05:59:38.526Z,99.99
2022-09-12T06:00:09.593Z,99.99
2022-09-12T06:00:40.598Z,99.99
2022-09-12T06:01:11.693Z,99.99
2022-09-12T06:01:42.295Z,99.99
2022-09-12T06:02:12.850Z,99.99
2022-09-12T06:02:43.371Z,99.99
2022-09-12T06:03:13.892Z,99.99
2022-09-12T06:03:44.421Z,99.99
2022-09-12T06:04:14.946Z,99.99
2022-09-12T06:04:45.958Z,99.99
2022-09-12T06:05:16.981Z,99.99
2022-09-12T06:05:50.663Z,99.99
2022-09-12T06:06:18.688Z,99.99
2022-09-12T06:06:49.710Z,99.99
2022-09-12T06:07:20.766Z,99.99
2022-09-12T06:07:51.821Z,99.99
2022-09-12T06:08:22.299Z,99.99
2022-09-12T06:08:52.866Z,99.99
2022-09-12T06:09:23.363Z,99.99
2022-09-12T06:09:54.374Z,99.99
2022-09-12T06:10:24.932Z,99.99
2022-09-12T06:10:59.258Z,99.99
2022-09-12T06:11:26.654Z,99.99
2022-09-12T06:11:57.203Z,99.99
2022-09-12T06:12:27.747Z,99.99
2022-09-12T06:12:58.279Z,99.99
2022-09-12T06:13:28.802Z,99.99
2022-09-12T06:13:59.841Z,99.99
2022-09-12T06:14:30.864Z,99.99
2022-09-12T06:15:01.399Z,99.99
2022-09-12T06:15:31.995Z,99.99
2022-09-12T06:16:02.512Z,99.99
2022-09-12T06:16:33.580Z,99.99
2022-09-12T06:17:04.144Z,99.99
2022-09-12T06:17:34.659Z,99.99
2022-09-12T06:18:05.179Z,99.99
2022-09-12T06:18:35.703Z,99.99
2022-09-12T06:19:06.722Z,99.99
2022-09-12T06:19:37.249Z,99.99
2022-09-12T06:20:08.244Z,99.99
2022-09-12T06:20:38.779Z,99.99
2022-09-12T06:21:09.301Z,99.99
2022-09-12T06:21:39.939Z,99.99
2022-09-12T06:22:10.471Z,99.99
2022-09-12T06:22:41.003Z,99.99
2022-09-12T06:23:11.546Z,99.99
2022-09-12T06:23:42.547Z,99.99
2022-09-12T06:24:13.596Z,99.99
2022-09-12T06:24:44.090Z,99.99
2022-09-12T06:25:14.610Z,99.99
2022-09-12T06:25:45.151Z,99.99
2022-09-12T06:26:15.680Z,99.99
2022-09-12T06:26:46.688Z,99.99
2022-09-12T06:27:17.733Z,99.99
2022-09-12T06:27:48.243Z,99.99
2022-09-12T06:28:19.273Z,99.99
2022-09-12T06:28:50.309Z,99.99
2022-09-12T06:29:20.833Z,99.99
2022-09-12T06:29:51.864Z,99.99
2022-09-12T06:30:25.459Z,99.99
2022-09-12T06:30:53.522Z,99.99
2022-09-12T06:31:24.114Z,99.99
2022-09-12T06:31:55.148Z,99.99
2022-09-12T06:32:25.688Z,99.99
2022-09-12T06:32:56.213Z,99.99
2022-09-12T06:33:26.738Z,99.99
2022-09-12T06:33:57.282Z,99.99
2022-09-12T06:34:27.795Z,99.99
2022-09-12T06:34:58.846Z,99.99